createdAt,value
2018-11-13T00:00:25.315Z,14.87
2018-11-13T00:02:54.441Z,13.67
2018-11-13T00:05:23.508Z,14.80
2018-11-13T00:07:52.038Z,17.00
2018-11-13T00:10:20.564Z,16.33
2018-11-13T00:12:49.171Z,16.63
2018-11-13T00:15:17.717Z,17.07
2018-11-13T00:17:46.485Z,17.40
2018-11-13T00:20:17.213Z,17.63
2018-11-13T00:22:45.984Z,14.60
2018-11-13T00:25:15.689Z,17.00
2018-11-13T00:27:44.686Z,15.60
2018-11-13T00:30:15.465Z,18.80
2018-11-13T00:32:44.360Z,15.93
2018-11-13T00:35:13.723Z,17.23
2018-11-13T00:37:42.261Z,17.17
2018-11-13T00:40:11.811Z,14.70
2018-11-13T00:42:41.132Z,16.23
2018-11-13T00:45:09.714Z,15.73
2018-11-13T00:47:38.375Z,17.07
2018-11-13T00:50:08.892Z,15.80
2018-11-13T00:52:37.415Z,15.07
2018-11-13T00:55:06.134Z,18.60
2018-11-13T00:57:34.634Z,18.20
2018-11-13T01:00:03.208Z,20.60
2018-11-13T01:02:31.685Z,18.87
2018-11-13T01:05:00.258Z,18.70
2018-11-13T01:07:28.849Z,17.90
2018-11-13T01:09:57.351Z,17.90
2018-11-13T01:12:25.966Z,21.90
2018-11-13T01:14:54.480Z,20.90
2018-11-13T01:17:22.967Z,20.83
2018-11-13T01:19:51.380Z,18.47
2018-11-13T01:22:19.998Z,17.13
2018-11-13T01:24:48.419Z,18.77
2018-11-13T01:27:16.934Z,18.83
2018-11-13T01:29:50.797Z,18.93
2018-11-13T01:32:19.354Z,18.27
2018-11-13T01:34:47.830Z,18.70
2018-11-13T01:37:16.309Z,17.73
2018-11-13T01:39:44.806Z,17.53
2018-11-13T01:42:13.415Z,17.60
2018-11-13T01:44:41.890Z,18.20
2018-11-13T01:47:10.395Z,18.23
2018-11-13T01:49:39.817Z,19.73
2018-11-13T01:52:07.845Z,17.83
2018-11-13T01:54:36.429Z,21.97
2018-11-13T01:57:05.078Z,20.27
2018-11-13T01:59:33.678Z,20.93
2018-11-13T02:02:02.161Z,20.47
2018-11-13T02:04:30.845Z,28.67
2018-11-13T02:06:59.388Z,28.03
2018-11-13T02:09:28.598Z,26.43
2018-11-13T02:11:57.156Z,29.73
2018-11-13T02:14:25.664Z,23.03
2018-11-13T02:16:54.142Z,26.23
2018-11-13T02:19:22.657Z,33.27
2018-11-13T02:21:51.156Z,36.37
2018-11-13T02:24:19.625Z,26.67
2018-11-13T02:26:48.124Z,30.73
2018-11-13T02:29:16.899Z,27.57
2018-11-13T02:31:45.373Z,21.23
2018-11-13T02:34:13.852Z,26.93
2018-11-13T02:36:42.457Z,25.27
2018-11-13T02:39:11.317Z,28.20
2018-11-13T02:41:40.000Z,33.37
2018-11-13T02:44:09.173Z,29.60
2018-11-13T02:46:38.067Z,20.30
2018-11-13T02:49:06.638Z,29.30
2018-11-13T02:51:35.349Z,24.10
2018-11-13T02:54:04.038Z,20.93
2018-11-13T02:56:33.381Z,23.03
2018-11-13T02:59:02.067Z,24.50
2018-11-13T03:01:30.619Z,26.63
2018-11-13T03:03:59.106Z,22.00
2018-11-13T03:06:27.597Z,20.60
2018-11-13T03:08:56.186Z,21.90
2018-11-13T03:11:24.649Z,25.00
2018-11-13T03:13:53.289Z,21.93
2018-11-13T03:16:21.708Z,23.17
2018-11-13T03:18:50.169Z,21.37
2018-11-13T03:21:18.625Z,18.93
2018-11-13T03:23:47.110Z,23.03
2018-11-13T03:26:15.606Z,21.10
2018-11-13T03:28:44.096Z,21.13
2018-11-13T03:31:12.766Z,21.83
2018-11-13T03:33:41.086Z,20.87
2018-11-13T03:36:09.592Z,23.00
2018-11-13T03:38:38.091Z,18.90
2018-11-13T03:41:06.603Z,21.27
2018-11-13T03:43:35.092Z,23.57
2018-11-13T03:46:04.385Z,19.77
2018-11-13T03:48:32.909Z,19.37
2018-11-13T03:51:01.384Z,24.73
2018-11-13T03:53:29.881Z,21.67
2018-11-13T03:55:58.361Z,20.47
2018-11-13T03:58:26.829Z,20.07
2018-11-13T04:00:55.304Z,19.60
2018-11-13T04:03:23.781Z,20.43
2018-11-13T04:05:52.258Z,23.67
2018-11-13T04:08:20.733Z,17.17
2018-11-13T04:10:49.194Z,18.77
2018-11-13T04:13:17.670Z,25.53
2018-11-13T04:15:46.144Z,22.93
2018-11-13T04:18:14.599Z,19.87
2018-11-13T04:20:43.036Z,19.80
2018-11-13T04:23:11.546Z,19.23
2018-11-13T04:25:40.055Z,23.43
2018-11-13T04:28:08.496Z,19.40
2018-11-13T04:30:37.034Z,19.50
2018-11-13T04:33:05.711Z,20.13
2018-11-13T04:35:34.161Z,20.67
2018-11-13T04:38:02.642Z,22.37
2018-11-13T04:40:31.126Z,17.77
2018-11-13T04:42:59.632Z,14.13
2018-11-13T04:45:31.015Z,18.47
2018-11-13T04:47:59.480Z,18.87
2018-11-13T04:50:27.976Z,17.77
2018-11-13T04:52:58.087Z,15.53
2018-11-13T04:55:26.622Z,18.93
2018-11-13T04:57:57.757Z,14.23
2018-11-13T05:00:26.251Z,18.77
2018-11-13T05:02:54.740Z,17.60
2018-11-13T05:05:24.339Z,16.10
2018-11-13T05:07:54.052Z,15.27
2018-11-13T05:10:22.820Z,15.27
2018-11-13T05:12:51.388Z,14.97
2018-11-13T05:15:21.774Z,14.73
2018-11-13T05:17:50.331Z,14.57
2018-11-13T05:20:18.986Z,14.23
2018-11-13T05:22:47.558Z,15.37
2018-11-13T05:25:17.475Z,14.47
2018-11-13T05:27:46.044Z,17.50
2018-11-13T05:30:15.989Z,17.60
2018-11-13T05:32:44.624Z,17.10
2018-11-13T05:35:14.482Z,15.27
2018-11-13T05:37:43.684Z,16.47
2018-11-13T05:40:17.704Z,14.73
2018-11-13T05:42:46.507Z,15.97
2018-11-13T05:45:16.849Z,15.50
2018-11-13T05:47:45.606Z,14.00
2018-11-13T05:50:15.575Z,14.33
2018-11-13T05:52:45.081Z,13.93
2018-11-13T05:55:14.117Z,13.90
2018-11-13T05:57:42.964Z,14.30
2018-11-13T06:00:14.625Z,9.97
2018-11-13T06:02:43.603Z,11.17
2018-11-13T06:05:12.662Z,14.20
2018-11-13T06:07:41.376Z,13.13
2018-11-13T06:10:10.934Z,10.10
2018-11-13T06:12:40.076Z,9.43
2018-11-13T06:15:08.992Z,8.77
2018-11-13T06:17:37.582Z,9.50
2018-11-13T06:20:08.262Z,9.63
2018-11-13T06:22:36.836Z,9.93
2018-11-13T06:25:06.319Z,10.23
2018-11-13T06:27:34.847Z,10.67
2018-11-13T06:30:03.426Z,9.67
2018-11-13T06:32:31.946Z,9.67
2018-11-13T06:35:00.473Z,9.97
2018-11-13T06:37:28.973Z,9.77
2018-11-13T06:39:57.553Z,8.00
2018-11-13T06:42:26.037Z,8.17
2018-11-13T06:44:54.486Z,7.73
2018-11-13T06:47:22.981Z,9.67
2018-11-13T06:49:51.597Z,7.97
2018-11-13T06:52:20.048Z,8.03
2018-11-13T06:54:59.309Z,8.60
2018-11-13T06:57:27.935Z,7.07
2018-11-13T06:59:57.127Z,8.50
2018-11-13T07:02:25.598Z,7.53
2018-11-13T07:04:54.103Z,7.33
2018-11-13T07:07:22.521Z,9.00
2018-11-13T07:09:50.966Z,8.23
2018-11-13T07:12:19.439Z,7.63
2018-11-13T07:14:47.942Z,7.87
2018-11-13T07:17:16.464Z,8.23
2018-11-13T07:19:44.921Z,8.03
2018-11-13T07:22:13.362Z,8.20
2018-11-13T07:24:41.827Z,8.20
2018-11-13T07:27:10.984Z,8.90
2018-11-13T07:29:39.439Z,8.40
2018-11-13T07:32:07.920Z,7.77
2018-11-13T07:34:36.382Z,8.63
2018-11-13T07:37:05.010Z,9.70
2018-11-13T07:39:33.481Z,10.00
2018-11-13T07:42:02.018Z,8.13
2018-11-13T07:44:30.496Z,8.77
2018-11-13T07:46:59.130Z,9.47
2018-11-13T07:49:27.586Z,8.80
2018-11-13T07:51:56.037Z,8.67
2018-11-13T07:54:24.497Z,9.30
2018-11-13T07:56:53.025Z,9.00
2018-11-13T07:59:21.474Z,9.73
2018-11-13T08:01:49.931Z,8.93
2018-11-13T08:04:18.464Z,8.57
2018-11-13T08:06:46.940Z,8.03
2018-11-13T08:09:15.366Z,9.57
2018-11-13T08:11:43.837Z,9.70
2018-11-13T08:14:12.298Z,9.87
2018-11-13T08:16:40.748Z,9.83
2018-11-13T08:19:09.277Z,9.57
2018-11-13T08:21:37.756Z,9.23
2018-11-13T08:24:06.585Z,10.70
2018-11-13T08:26:35.027Z,10.43
2018-11-13T08:29:03.662Z,10.80
2018-11-13T08:31:31.972Z,10.17
2018-11-13T08:34:00.445Z,10.93
2018-11-13T08:36:28.962Z,10.10
2018-11-13T08:38:57.376Z,9.93
2018-11-13T08:41:25.858Z,10.43
2018-11-13T08:43:54.361Z,9.80
2018-11-13T08:46:22.785Z,9.60
2018-11-13T08:48:51.221Z,9.70
2018-11-13T08:51:19.681Z,10.60
2018-11-13T08:53:48.142Z,9.17
2018-11-13T08:56:16.631Z,9.30
2018-11-13T08:58:45.083Z,9.73
2018-11-13T09:01:13.558Z,9.33
2018-11-13T09:03:42.009Z,9.63
2018-11-13T09:06:10.474Z,9.13
2018-11-13T09:08:38.921Z,10.50
2018-11-13T09:11:07.438Z,9.87
2018-11-13T09:13:35.869Z,9.27
2018-11-13T09:16:04.658Z,8.20
2018-11-13T09:18:33.118Z,8.73
2018-11-13T09:21:01.566Z,8.60
2018-11-13T09:23:30.025Z,8.40
2018-11-13T09:25:58.528Z,7.87
2018-11-13T09:28:26.992Z,8.07
2018-11-13T09:30:55.722Z,7.00
2018-11-13T09:33:23.915Z,8.07
2018-11-13T09:35:52.385Z,6.80
2018-11-13T09:38:20.839Z,6.10
2018-11-13T09:40:49.300Z,6.80
2018-11-13T09:43:17.757Z,5.83
2018-11-13T09:45:46.249Z,5.20
2018-11-13T09:48:14.676Z,5.97
2018-11-13T09:50:43.231Z,5.87
2018-11-13T09:53:11.638Z,5.37
2018-11-13T09:55:40.137Z,5.33
2018-11-13T09:58:08.698Z,5.80
2018-11-13T10:00:37.230Z,5.27
2018-11-13T10:03:06.653Z,5.07
2018-11-13T10:05:34.473Z,5.57
2018-11-13T10:08:02.865Z,4.83
2018-11-13T10:10:31.356Z,4.83
2018-11-13T10:12:59.864Z,4.70
2018-11-13T10:15:29.565Z,4.70
2018-11-13T10:17:58.359Z,3.90
2018-11-13T10:20:26.827Z,4.97
2018-11-13T10:22:56.356Z,4.60
2018-11-13T10:25:24.867Z,3.50
2018-11-13T10:27:53.381Z,4.60
2018-11-13T10:30:23.025Z,4.23
2018-11-13T10:32:52.326Z,4.20
2018-11-13T10:35:22.598Z,4.83
2018-11-13T10:37:51.067Z,4.60
2018-11-13T10:40:20.610Z,3.87
2018-11-13T10:42:49.437Z,4.80
2018-11-13T10:45:20.344Z,4.03
2018-11-13T10:47:48.825Z,4.07
2018-11-13T10:50:20.702Z,3.67
2018-11-13T10:52:49.124Z,4.07
2018-11-13T10:55:17.619Z,4.70
2018-11-13T10:57:46.074Z,3.60
2018-11-13T11:00:20.847Z,3.60
2018-11-13T11:02:54.788Z,3.50
2018-11-13T11:05:25.835Z,3.50
2018-11-13T11:07:54.641Z,4.30
2018-11-13T11:10:23.081Z,3.40
2018-11-13T11:12:51.636Z,3.47
2018-11-13T11:15:20.092Z,3.43
2018-11-13T11:17:48.618Z,4.40
2018-11-13T11:20:17.066Z,3.87
2018-11-13T11:22:45.655Z,3.60
2018-11-13T11:25:14.558Z,4.70
2018-11-13T11:27:42.998Z,3.30
2018-11-13T11:30:14.383Z,3.73
2018-11-13T11:32:42.918Z,2.80
2018-11-13T11:35:11.682Z,2.93
2018-11-13T11:37:40.821Z,2.80
2018-11-13T11:40:10.342Z,2.37
2018-11-13T11:42:39.098Z,2.43
2018-11-13T11:45:09.642Z,2.07
2018-11-13T11:47:38.131Z,2.80
2018-11-13T11:50:07.554Z,2.40
2018-11-13T11:52:36.169Z,2.07
2018-11-13T11:55:04.819Z,3.00
2018-11-13T11:57:33.302Z,2.63
2018-11-13T12:00:01.818Z,2.67
2018-11-13T12:02:30.309Z,2.20
2018-11-13T12:04:58.859Z,2.33
2018-11-13T12:07:27.425Z,2.77
2018-11-13T12:09:55.894Z,2.20
2018-11-13T12:12:24.459Z,2.17
2018-11-13T12:14:52.892Z,2.20
2018-11-13T12:17:21.366Z,1.70
2018-11-13T12:19:49.925Z,1.40
2018-11-13T12:22:18.407Z,1.17
2018-11-13T12:24:46.847Z,1.10
2018-11-13T12:27:15.303Z,1.40
2018-11-13T12:29:43.945Z,1.13
2018-11-13T12:32:12.409Z,1.10
2018-11-13T12:34:40.991Z,1.20
2018-11-13T12:37:09.355Z,1.13
2018-11-13T12:39:37.839Z,1.50
2018-11-13T12:42:06.334Z,1.67
2018-11-13T12:44:34.796Z,1.37
2018-11-13T12:47:03.377Z,1.47
2018-11-13T12:49:32.030Z,1.30
2018-11-13T12:52:18.133Z,1.37
2018-11-13T12:54:47.360Z,1.67
2018-11-13T12:57:15.866Z,1.30
2018-11-13T12:59:44.334Z,1.80
2018-11-13T13:02:12.921Z,1.93
2018-11-13T13:04:41.356Z,2.07
2018-11-13T13:07:10.232Z,2.00
2018-11-13T13:09:39.030Z,2.23
2018-11-13T13:14:50.167Z,1.80
2018-11-13T13:17:18.609Z,1.87
2018-11-13T13:19:47.079Z,2.73
2018-11-13T13:22:15.647Z,2.70
2018-11-13T13:24:44.025Z,1.90
2018-11-13T13:27:12.491Z,2.20
2018-11-13T13:29:40.942Z,2.40
2018-11-13T13:32:09.413Z,2.63
2018-11-13T13:34:37.906Z,2.10
2018-11-13T13:37:06.350Z,2.20
2018-11-13T13:39:34.824Z,2.90
2018-11-13T13:42:03.307Z,1.73
2018-11-13T13:44:31.777Z,2.00
2018-11-13T13:47:00.254Z,2.10
2018-11-13T13:49:28.711Z,2.53
2018-11-13T13:51:57.163Z,2.30
2018-11-13T13:54:25.729Z,2.17
2018-11-13T13:56:54.114Z,2.27
2018-11-13T13:59:22.645Z,2.70
2018-11-13T14:01:51.097Z,3.03
2018-11-13T14:04:19.546Z,2.30
2018-11-13T14:06:48.007Z,2.07
2018-11-13T14:09:16.489Z,2.30
2018-11-13T14:11:44.965Z,2.47
2018-11-13T14:14:13.453Z,2.60
2018-11-13T14:16:41.979Z,2.13
2018-11-13T14:19:10.406Z,2.37
2018-11-13T14:21:38.874Z,2.43
2018-11-13T14:24:07.358Z,2.50
2018-11-13T14:26:35.864Z,2.77
2018-11-13T14:29:04.367Z,2.50
2018-11-13T14:31:32.807Z,2.50
2018-11-13T14:34:01.289Z,2.27
2018-11-13T14:36:29.783Z,2.67
2018-11-13T14:38:58.339Z,2.80
2018-11-13T14:41:26.734Z,2.50
2018-11-13T14:43:55.241Z,2.40
2018-11-13T14:46:23.745Z,2.37
2018-11-13T14:48:52.146Z,2.83
2018-11-13T14:51:20.605Z,2.03
2018-11-13T14:53:49.088Z,2.77
2018-11-13T14:56:17.550Z,2.20
2018-11-13T14:58:46.000Z,2.90
2018-11-13T15:01:14.449Z,2.30
2018-11-13T15:03:42.989Z,2.20
2018-11-13T15:06:11.710Z,2.03
2018-11-13T15:08:41.247Z,2.10
2018-11-13T15:11:10.896Z,2.17
2018-11-13T15:13:40.574Z,2.27
2018-11-13T15:16:09.061Z,2.50
2018-11-13T15:18:37.582Z,2.30
2018-11-13T15:21:06.372Z,2.80
2018-11-13T15:23:52.905Z,2.70
2018-11-13T15:26:24.126Z,2.60
2018-11-13T15:29:00.059Z,2.53
2018-11-13T15:31:29.576Z,2.17
2018-11-13T15:33:58.033Z,2.40
2018-11-13T15:36:36.136Z,2.33
2018-11-13T15:39:08.434Z,1.93
2018-11-13T15:41:36.981Z,2.67
2018-11-13T15:44:41.615Z,2.73
2018-11-13T15:47:11.780Z,3.03
2018-11-13T15:49:41.646Z,2.70
2018-11-13T15:52:12.710Z,2.67
2018-11-13T15:54:47.121Z,3.40
2018-11-13T15:57:16.558Z,3.70
2018-11-13T15:59:46.959Z,2.60
2018-11-13T16:02:15.437Z,3.10
2018-11-13T16:04:43.924Z,2.70
2018-11-13T16:07:12.457Z,4.10
2018-11-13T16:09:40.929Z,2.80
2018-11-13T16:12:09.429Z,2.80
2018-11-13T16:14:37.909Z,3.17
2018-11-13T16:17:06.373Z,3.60
2018-11-13T16:19:34.879Z,2.87
2018-11-13T16:22:03.343Z,3.50
2018-11-13T16:24:31.815Z,3.17
2018-11-13T16:27:00.332Z,4.20
2018-11-13T16:29:28.817Z,3.37
2018-11-13T16:31:57.320Z,3.73
2018-11-13T16:34:25.989Z,3.47
2018-11-13T16:36:54.481Z,3.20
2018-11-13T16:39:22.956Z,3.00
2018-11-13T16:41:51.522Z,3.00
2018-11-13T16:44:20.660Z,3.17
2018-11-13T16:46:49.136Z,2.80
2018-11-13T16:49:17.598Z,2.67
2018-11-13T16:51:46.077Z,3.13
2018-11-13T16:54:14.598Z,3.13
2018-11-13T16:56:47.862Z,2.93
2018-11-13T16:59:16.307Z,2.97
2018-11-13T17:01:44.776Z,3.37
2018-11-13T17:04:13.296Z,3.63
2018-11-13T17:06:41.914Z,4.00
2018-11-13T17:09:11.194Z,3.10
2018-11-13T17:11:39.764Z,3.40
2018-11-13T17:14:08.237Z,3.23
2018-11-13T17:16:36.677Z,3.23
2018-11-13T17:19:05.359Z,3.07
2018-11-13T17:21:33.824Z,2.80
2018-11-13T17:24:02.291Z,2.63
2018-11-13T17:26:30.803Z,3.00
2018-11-13T17:28:59.418Z,3.40
2018-11-13T17:31:27.968Z,2.80
2018-11-13T17:33:56.300Z,2.93
2018-11-13T17:36:24.782Z,4.43
2018-11-13T17:38:53.858Z,3.93
2018-11-13T17:41:22.331Z,3.60
2018-11-13T17:43:50.861Z,3.67
2018-11-13T17:46:19.356Z,4.43
2018-11-13T17:48:48.835Z,3.53
2018-11-13T17:51:17.295Z,3.00
2018-11-13T17:53:45.764Z,3.33
2018-11-13T17:56:14.419Z,3.33
2018-11-13T17:58:42.948Z,4.17
2018-11-13T18:01:11.518Z,3.47
2018-11-13T18:03:40.037Z,3.20
2018-11-13T18:06:08.601Z,3.13
2018-11-13T18:08:37.166Z,3.13
2018-11-13T18:11:05.941Z,3.23
2018-11-13T18:13:34.498Z,3.30
2018-11-13T18:16:03.049Z,3.50
2018-11-13T18:18:31.549Z,4.30
2018-11-13T18:21:00.195Z,4.90
2018-11-13T18:23:29.398Z,4.00
2018-11-13T18:25:58.782Z,3.47
2018-11-13T18:28:28.332Z,4.37
2018-11-13T18:30:58.209Z,2.93
2018-11-13T18:33:27.093Z,4.47
2018-11-13T18:35:59.549Z,3.70
2018-11-13T18:38:28.377Z,3.62
2018-11-13T18:40:57.396Z,2.93
2018-11-13T18:43:26.031Z,2.87
2018-11-13T18:45:55.605Z,2.83
2018-11-13T18:48:24.465Z,3.23
2018-11-13T18:50:53.370Z,3.37
2018-11-13T18:53:22.708Z,3.90
2018-11-13T18:55:57.144Z,3.27
2018-11-13T18:58:30.225Z,3.80
2018-11-13T19:00:58.919Z,3.33
2018-11-13T19:03:27.859Z,3.57
2018-11-13T19:05:56.770Z,3.60
2018-11-13T19:08:25.706Z,3.70
2018-11-13T19:10:54.596Z,4.13
2018-11-13T19:13:25.129Z,3.70
2018-11-13T19:15:57.760Z,4.10
2018-11-13T19:18:26.473Z,4.10
2018-11-13T19:20:56.126Z,3.87
2018-11-13T19:23:24.731Z,4.27
2018-11-13T19:25:54.303Z,3.83
2018-11-13T19:28:23.936Z,4.50
2018-11-13T19:30:52.570Z,4.13
2018-11-13T19:33:21.122Z,4.90
2018-11-13T19:35:49.886Z,4.43
2018-11-13T19:38:18.330Z,4.87
2018-11-13T19:40:46.941Z,4.27
2018-11-13T19:43:16.350Z,4.97
2018-11-13T19:45:44.864Z,4.83
2018-11-13T19:48:13.555Z,4.20
2018-11-13T19:50:43.617Z,3.93
2018-11-13T19:53:14.371Z,4.10
2018-11-13T19:55:44.536Z,11.37
2018-11-13T19:58:13.764Z,11.10
2018-11-13T20:00:42.450Z,9.87
2018-11-13T20:03:13.076Z,7.90
2018-11-13T20:05:42.665Z,4.70
2018-11-13T20:08:11.218Z,4.20
2018-11-13T20:10:42.891Z,4.10
2018-11-13T20:13:12.357Z,5.37
2018-11-13T20:15:41.143Z,3.73
2018-11-13T20:18:11.416Z,4.50
2018-11-13T20:20:42.176Z,6.60
2018-11-13T20:23:11.762Z,5.73
2018-11-13T20:25:41.339Z,6.90
2018-11-13T20:28:10.537Z,4.80
2018-11-13T20:30:41.281Z,5.23
2018-11-13T20:33:09.942Z,5.00
2018-11-13T20:35:38.501Z,4.37
2018-11-13T20:38:07.547Z,4.57
2018-11-13T20:40:36.974Z,4.53
2018-11-13T20:43:07.176Z,4.73
2018-11-13T20:45:35.689Z,5.07
2018-11-13T20:48:04.227Z,4.97
2018-11-13T20:50:33.669Z,4.43
2018-11-13T20:53:02.899Z,4.90
2018-11-13T20:55:31.424Z,5.70
2018-11-13T20:58:01.584Z,11.20
2018-11-13T21:00:34.493Z,7.70
2018-11-13T21:03:03.078Z,7.10
2018-11-13T21:05:31.566Z,5.37
2018-11-13T21:08:00.065Z,4.90
2018-11-13T21:10:30.495Z,3.87
2018-11-13T21:12:59.242Z,4.77
2018-11-13T21:15:27.764Z,4.97
2018-11-13T21:17:56.224Z,4.73
2018-11-13T21:20:25.753Z,8.17
2018-11-13T21:22:53.919Z,6.20
2018-11-13T21:25:23.557Z,7.37
2018-11-13T21:27:56.484Z,6.50
2018-11-13T21:30:25.166Z,5.50
2018-11-13T21:32:54.163Z,4.83
2018-11-13T21:35:22.699Z,6.10
2018-11-13T21:37:52.637Z,4.50
2018-11-13T21:40:23.380Z,5.20
2018-11-13T21:42:52.501Z,4.47
2018-11-13T21:45:21.989Z,4.03
2018-11-13T21:47:50.495Z,4.97
2018-11-13T21:50:20.378Z,4.17
2018-11-13T21:52:48.906Z,4.20
2018-11-13T21:55:19.006Z,4.60
2018-11-13T21:57:47.544Z,4.30
2018-11-13T22:00:23.913Z,4.43
2018-11-13T22:02:54.909Z,5.97
2018-11-13T22:05:25.891Z,6.03
2018-11-13T22:07:54.458Z,5.30
2018-11-13T22:10:23.911Z,6.40
2018-11-13T22:12:52.381Z,5.00
2018-11-13T22:15:22.850Z,6.37
2018-11-13T22:17:51.062Z,5.87
2018-11-13T22:20:21.137Z,5.90
2018-11-13T22:22:50.799Z,5.93
2018-11-13T22:25:21.121Z,5.83
2018-11-13T22:27:50.777Z,6.23
2018-11-13T22:30:21.595Z,7.00
2018-11-13T22:32:50.147Z,5.87
2018-11-13T22:35:19.413Z,5.07
2018-11-13T22:37:47.938Z,5.50
2018-11-13T22:40:17.641Z,5.97
2018-11-13T22:42:46.346Z,5.03
2018-11-13T22:45:17.772Z,5.47
2018-11-13T22:47:46.234Z,5.87
2018-11-13T22:50:21.089Z,4.70
2018-11-13T22:52:49.751Z,4.57
2018-11-13T22:55:18.579Z,5.30
2018-11-13T22:57:47.888Z,4.63
2018-11-13T23:00:23.026Z,5.40
2018-11-13T23:02:52.717Z,4.63
2018-11-13T23:05:21.363Z,6.77
2018-11-13T23:07:49.867Z,6.90
2018-11-13T23:10:18.634Z,4.77
2018-11-13T23:12:47.199Z,5.93
2018-11-13T23:15:19.098Z,5.07
2018-11-13T23:17:47.560Z,6.03
2018-11-13T23:20:17.388Z,6.03
2018-11-13T23:22:45.900Z,5.73
2018-11-13T23:25:15.532Z,4.97
2018-11-13T23:27:44.847Z,4.83
2018-11-13T23:30:19.502Z,6.30
2018-11-13T23:32:48.137Z,6.30
2018-11-13T23:35:16.953Z,7.43
2018-11-13T23:37:46.566Z,5.60
2018-11-13T23:40:16.448Z,6.80
2018-11-13T23:42:45.416Z,5.90
2018-11-13T23:45:14.833Z,7.13
2018-11-13T23:47:44.594Z,5.87
2018-11-13T23:50:13.222Z,6.20
2018-11-13T23:52:42.066Z,5.50
2018-11-13T23:55:11.697Z,6.10
2018-11-13T23:57:40.745Z,6.07
